sensor_id;sensor_type;location;lat;lon;timestamp;pressure;altitude;pressure_sealevel;temperature;humidity
13581;BME280;6861;46.170;7.222;2023-05-25T00:01:49;95777.00;;;17.32;52.78
13581;BME280;6861;46.170;7.222;2023-05-25T00:04:21;95779.28;;;17.34;52.42
13581;BME280;6861;46.170;7.222;2023-05-25T00:06:53;95777.88;;;17.36;52.92
13581;BME280;6861;46.170;7.222;2023-05-25T00:09:21;95779.13;;;17.39;52.73
13581;BME280;6861;46.170;7.222;2023-05-25T00:12:19;95779.28;;;17.34;52.75
13581;BME280;6861;46.170;7.222;2023-05-25T00:14:47;95777.44;;;17.17;52.71
13581;BME280;6861;46.170;7.222;2023-05-25T00:17:16;95772.31;;;17.12;53.42
13581;BME280;6861;46.170;7.222;2023-05-25T00:19:46;95779.00;;;17.10;52.84
13581;BME280;6861;46.170;7.222;2023-05-25T00:22:14;95766.56;;;17.10;53.55
13581;BME280;6861;46.170;7.222;2023-05-25T00:24:43;95775.75;;;17.13;52.75
13581;BME280;6861;46.170;7.222;2023-05-25T00:27:11;95772.47;;;17.16;53.48
13581;BME280;6861;46.170;7.222;2023-05-25T00:29:39;95771.06;;;17.18;52.85
13581;BME280;6861;46.170;7.222;2023-05-25T00:32:07;95759.72;;;17.18;52.66
13581;BME280;6861;46.170;7.222;2023-05-25T00:34:35;95774.50;;;17.19;53.26
13581;BME280;6861;46.170;7.222;2023-05-25T00:37:05;95775.75;;;17.21;53.04
13581;BME280;6861;46.170;7.222;2023-05-25T00:39:33;95772.16;;;17.26;52.75
13581;BME280;6861;46.170;7.222;2023-05-25T00:42:02;95777.47;;;17.26;53.21
13581;BME280;6861;46.170;7.222;2023-05-25T00:44:30;95771.69;;;17.24;52.56
13581;BME280;6861;46.170;7.222;2023-05-25T00:46:58;95771.38;;;17.17;53.19
13581;BME280;6861;46.170;7.222;2023-05-25T00:49:27;95774.66;;;17.14;53.27
13581;BME280;6861;46.170;7.222;2023-05-25T00:51:57;95763.91;;;17.10;53.04
13581;BME280;6861;46.170;7.222;2023-05-25T00:54:27;95774.19;;;17.12;52.61
13581;BME280;6861;46.170;7.222;2023-05-25T00:56:56;95774.19;;;17.12;53.60
13581;BME280;6861;46.170;7.222;2023-05-25T00:59:31;95773.72;;;17.10;53.18
13581;BME280;6861;46.170;7.222;2023-05-25T01:02:02;95768.44;;;17.10;52.76
13581;BME280;6861;46.170;7.222;2023-05-25T01:04:34;95763.91;;;17.10;53.29
13581;BME280;6861;46.170;7.222;2023-05-25T01:07:04;95768.44;;;17.10;53.09
13581;BME280;6861;46.170;7.222;2023-05-25T01:09:37;95771.38;;;17.08;53.43
13581;BME280;6861;46.170;7.222;2023-05-25T01:12:07;95778.69;;;17.02;53.59
13581;BME280;6861;46.170;7.222;2023-05-25T01:14:38;95765.47;;;16.94;53.98
13581;BME280;6861;46.170;7.222;2023-05-25T01:17:07;95764.81;;;16.88;53.85
13581;BME280;6861;46.170;7.222;2023-05-25T01:19:35;95769.66;;;16.86;53.47
13581;BME280;6861;46.170;7.222;2023-05-25T01:22:12;95765.44;;;16.85;53.88
13581;BME280;6861;46.170;7.222;2023-05-25T01:24:43;95764.03;;;16.79;53.81
13581;BME280;6861;46.170;7.222;2023-05-25T01:27:17;95772.56;;;16.76;54.14
13581;BME280;6861;46.170;7.222;2023-05-25T01:29:48;95772.72;;;16.71;53.97
13581;BME280;6861;46.170;7.222;2023-05-25T01:32:17;95767.44;;;16.71;53.72
13581;BME280;6861;46.170;7.222;2023-05-25T01:34:47;95768.53;;;16.70;54.13
13581;BME280;6861;46.170;7.222;2023-05-25T01:37:18;95768.06;;;16.68;53.65
13581;BME280;6861;46.170;7.222;2023-05-25T01:39:50;95768.53;;;16.70;53.94
13581;BME280;6861;46.170;7.222;2023-05-25T01:42:18;95775.06;;;16.73;53.91
13581;BME280;6861;46.170;7.222;2023-05-25T01:44:46;95777.69;;;16.73;54.16
13581;BME280;6861;46.170;7.222;2023-05-25T01:47:20;95775.38;;;16.71;53.85
13581;BME280;6861;46.170;7.222;2023-05-25T01:49:55;95773.66;;;16.75;54.37
13581;BME280;6861;46.170;7.222;2023-05-25T01:52:31;95782.06;;;16.77;54.58
13581;BME280;6861;46.170;7.222;2023-05-25T01:55:06;95776.63;;;16.74;54.64
13581;BME280;6861;46.170;7.222;2023-05-25T01:57:36;95778.47;;;16.73;54.64
13581;BME280;6861;46.170;7.222;2023-05-25T02:00:07;95779.56;;;16.72;54.85
13581;BME280;6861;46.170;7.222;2023-05-25T02:02:37;95780.19;;;16.69;54.99
13581;BME280;6861;46.170;7.222;2023-05-25T02:05:08;95785.72;;;16.59;55.15
13581;BME280;6861;46.170;7.222;2023-05-25T02:07:38;95774.22;;;16.55;55.32
13581;BME280;6861;46.170;7.222;2023-05-25T02:10:07;95779.94;;;16.48;55.33
13581;BME280;6861;46.170;7.222;2023-05-25T02:12:35;95782.13;;;16.46;55.28
13581;BME280;6861;46.170;7.222;2023-05-25T02:15:04;95786.63;;;16.46;55.65
13581;BME280;6861;46.170;7.222;2023-05-25T02:17:32;95784.13;;;16.41;55.58
13581;BME280;6861;46.170;7.222;2023-05-25T02:20:03;95790.50;;;16.39;55.63
13581;BME280;6861;46.170;7.222;2023-05-25T02:22:32;95785.69;;;16.42;55.51
13581;BME280;6861;46.170;7.222;2023-05-25T02:25:01;95783.53;;;16.44;55.90
13581;BME280;6861;46.170;7.222;2023-05-25T02:27:29;95782.56;;;16.39;56.45
13581;BME280;6861;46.170;7.222;2023-05-25T02:29:57;95785.34;;;16.34;56.46
13581;BME280;6861;46.170;7.222;2023-05-25T02:32:25;95783.78;;;16.33;56.37
13581;BME280;6861;46.170;7.222;2023-05-25T02:34:55;95785.97;;;16.31;56.37
13581;BME280;6861;46.170;7.222;2023-05-25T02:37:23;95789.69;;;16.30;56.53
13581;BME280;6861;46.170;7.222;2023-05-25T02:39:51;95786.91;;;16.35;56.59
13581;BME280;6861;46.170;7.222;2023-05-25T02:42:21;95791.28;;;16.40;56.86
13581;BME280;6861;46.170;7.222;2023-05-25T02:44:49;95794.09;;;16.44;56.33
13581;BME280;6861;46.170;7.222;2023-05-25T02:47:18;95802.31;;;16.51;56.77
13581;BME280;6861;46.170;7.222;2023-05-25T02:49:46;95795.50;;;16.58;56.28
13581;BME280;6861;46.170;7.222;2023-05-25T02:52:14;95802.72;;;16.66;56.39
13581;BME280;6861;46.170;7.222;2023-05-25T02:54:42;95803.66;;;16.70;56.13
13581;BME280;6861;46.170;7.222;2023-05-25T02:57:10;95805.50;;;16.70;56.16
13581;BME280;6861;46.170;7.222;2023-05-25T02:59:40;95801.63;;;16.67;56.96
13581;BME280;6861;46.170;7.222;2023-05-25T03:02:08;95812.97;;;16.68;56.36
13581;BME280;6861;46.170;7.222;2023-05-25T03:04:37;95811.88;;;16.69;56.18
13581;BME280;6861;46.170;7.222;2023-05-25T03:07:07;95809.72;;;16.71;56.04
13581;BME280;6861;46.170;7.222;2023-05-25T03:09:35;95808.16;;;16.70;56.57
13581;BME280;6861;46.170;7.222;2023-05-25T03:12:03;95820.28;;;16.71;55.96
13581;BME280;6861;46.170;7.222;2023-05-25T03:14:32;95816.56;;;16.72;56.52
13581;BME280;6861;46.170;7.222;2023-05-25T03:17:01;95815.00;;;16.71;56.71
13581;BME280;6861;46.170;7.222;2023-05-25T03:19:30;95821.84;;;16.72;57.21
13581;BME280;6861;46.170;7.222;2023-05-25T03:21:59;95819.50;;;16.70;57.09
13581;BME280;6861;46.170;7.222;2023-05-25T03:24:27;95819.50;;;16.70;57.70
13581;BME280;6861;46.170;7.222;2023-05-25T03:26:55;95820.28;;;16.71;57.85
13581;BME280;6861;46.170;7.222;2023-05-25T03:29:23;95819.34;;;16.67;58.03
13581;BME280;6861;46.170;7.222;2023-05-25T03:31:52;95821.97;;;16.67;57.93
13581;BME280;6861;46.170;7.222;2023-05-25T03:34:22;95819.91;;;16.64;58.40
13581;BME280;6861;46.170;7.222;2023-05-25T03:36:51;95825.19;;;16.64;58.14
13581;BME280;6861;46.170;7.222;2023-05-25T03:39:21;95819.75;;;16.60;58.29
13581;BME280;6861;46.170;7.222;2023-05-25T03:41:49;95830.16;;;16.57;58.37
13581;BME280;6861;46.170;7.222;2023-05-25T03:44:17;95836.53;;;16.56;58.67
13581;BME280;6861;46.170;7.222;2023-05-25T03:46:47;95830.75;;;16.54;58.92
13581;BME280;6861;46.170;7.222;2023-05-25T03:49:15;95833.53;;;16.49;59.30
13581;BME280;6861;46.170;7.222;2023-05-25T03:51:45;95838.22;;;16.52;59.32
13581;BME280;6861;46.170;7.222;2023-05-25T03:54:13;95839.28;;;16.51;59.05
13581;BME280;6861;46.170;7.222;2023-05-25T03:56:41;95847.22;;;16.51;59.25
13581;BME280;6861;46.170;7.222;2023-05-25T03:59:09;95847.22;;;16.51;59.51
13581;BME280;6861;46.170;7.222;2023-05-25T04:01:37;95852.66;;;16.46;59.20
13581;BME280;6861;46.170;7.222;2023-05-25T04:04:05;95852.94;;;16.35;59.72
13581;BME280;6861;46.170;7.222;2023-05-25T04:06:34;95858.34;;;16.30;59.23
13581;BME280;6861;46.170;7.222;2023-05-25T04:09:04;95856.44;;;16.22;59.41
13581;BME280;6861;46.170;7.222;2023-05-25T04:11:32;95863.28;;;16.23;59.54
13581;BME280;6861;46.170;7.222;2023-05-25T04:14:00;95872.28;;;16.22;59.54
13581;BME280;6861;46.170;7.222;2023-05-25T04:16:28;95874.44;;;16.20;59.96
13581;BME280;6861;46.170;7.222;2023-05-25T04:18:57;95877.84;;;16.21;59.78
13581;BME280;6861;46.170;7.222;2023-05-25T04:21:25;95876.47;;;16.23;59.97
13581;BME280;6861;46.170;7.222;2023-05-25T04:23:53;95872.44;;;16.26;59.54
13581;BME280;6861;46.170;7.222;2023-05-25T04:26:23;95876.94;;;16.25;59.44
13581;BME280;6861;46.170;7.222;2023-05-25T04:28:52;95871.66;;;16.25;59.40
13581;BME280;6861;46.170;7.222;2023-05-25T04:31:21;95872.44;;;16.26;59.99
13581;BME280;6861;46.170;7.222;2023-05-25T04:33:50;95882.41;;;16.29;59.85
13581;BME280;6861;46.170;7.222;2023-05-25T04:36:18;95868.28;;;16.33;60.16
13581;BME280;6861;46.170;7.222;2023-05-25T04:38:46;95879.03;;;16.37;59.70
13581;BME280;6861;46.170;7.222;2023-05-25T04:41:18;95880.75;;;16.42;59.73
13581;BME280;6861;46.170;7.222;2023-05-25T04:43:47;95876.25;;;16.42;59.74
13581;BME280;6861;46.170;7.222;2023-05-25T04:46:34;95880.16;;;16.45;59.65
13581;BME280;6861;46.170;7.222;2023-05-25T04:49:04;95890.09;;;16.48;59.72
13581;BME280;6861;46.170;7.222;2023-05-25T04:51:34;95893.97;;;16.50;60.48
13581;BME280;6861;46.170;7.222;2023-05-25T04:54:02;95896.31;;;16.52;59.97
13581;BME280;6861;46.170;7.222;2023-05-25T04:56:31;95895.72;;;16.55;59.97
13581;BME280;6861;46.170;7.222;2023-05-25T04:59:01;95895.09;;;16.58;60.41
13581;BME280;6861;46.170;7.222;2023-05-25T05:01:30;95903.50;;;16.60;60.25
13581;BME280;6861;46.170;7.222;2023-05-25T05:04:00;95903.69;;;16.63;60.19
13581;BME280;6861;46.170;7.222;2023-05-25T05:06:28;95903.88;;;16.67;60.44
13581;BME280;6861;46.170;7.222;2023-05-25T05:08:57;95908.56;;;16.70;60.67
13581;BME280;6861;46.170;7.222;2023-05-25T05:11:26;95905.63;;;16.71;60.21
13581;BME280;6861;46.170;7.222;2023-05-25T05:13:54;95914.78;;;16.74;60.66
13581;BME280;6861;46.170;7.222;2023-05-25T05:16:24;95918.03;;;16.71;60.46
13581;BME280;6861;46.170;7.222;2023-05-25T05:18:52;95919.25;;;16.65;60.81
13581;BME280;6861;46.170;7.222;2023-05-25T05:21:20;95922.47;;;16.62;60.91
13581;BME280;6861;46.170;7.222;2023-05-25T05:23:49;95931.97;;;16.63;61.17
13581;BME280;6861;46.170;7.222;2023-05-25T05:26:17;95931.88;;;16.68;61.26
13581;BME280;6861;46.170;7.222;2023-05-25T05:28:45;95935.47;;;16.72;61.41
13581;BME280;6861;46.170;7.222;2023-05-25T05:31:13;95929.56;;;16.75;61.30
13581;BME280;6861;46.170;7.222;2023-05-25T05:33:44;95937.53;;;16.84;61.38
13581;BME280;6861;46.170;7.222;2023-05-25T05:36:12;95935.22;;;16.91;61.27
13581;BME280;6861;46.170;7.222;2023-05-25T05:38:41;95948.31;;;16.96;61.18
13581;BME280;6861;46.170;7.222;2023-05-25T05:41:12;95951.72;;;16.96;60.33
13581;BME280;6861;46.170;7.222;2023-05-25T05:43:40;95956.25;;;16.96;61.08
13581;BME280;6861;46.170;7.222;2023-05-25T05:46:09;95959.66;;;16.96;60.80
13581;BME280;6861;46.170;7.222;2023-05-25T05:48:37;95957.50;;;16.98;61.12
13581;BME280;6861;46.170;7.222;2023-05-25T05:51:07;95965.91;;;17.00;60.89
13581;BME280;6861;46.170;7.222;2023-05-25T05:53:35;95970.59;;;17.03;60.49
13581;BME280;6861;46.170;7.222;2023-05-25T05:56:03;95974.66;;;17.10;60.85
13581;BME280;6861;46.170;7.222;2023-05-25T05:58:32;95976.06;;;17.16;60.43
13581;BME280;6861;46.170;7.222;2023-05-25T06:01:00;95981.84;;;17.18;60.70
13581;BME280;6861;46.170;7.222;2023-05-25T06:03:29;95976.41;;;17.23;60.52
13581;BME280;6861;46.170;7.222;2023-05-25T06:05:58;95978.31;;;17.31;60.59
13581;BME280;6861;46.170;7.222;2023-05-25T06:08:28;95989.19;;;17.38;60.01
13581;BME280;6861;46.170;7.222;2023-05-25T06:10:56;95987.63;;;17.37;60.42
13581;BME280;6861;46.170;7.222;2023-05-25T06:13:24;95985.47;;;17.39;60.32
13581;BME280;6861;46.170;7.222;2023-05-25T06:15:52;95997.28;;;17.42;60.18
13581;BME280;6861;46.170;7.222;2023-05-25T06:18:20;96007.09;;;17.41;60.25
13581;BME280;6861;46.170;7.222;2023-05-25T06:20:49;96004.44;;;17.41;59.84
13581;BME280;6861;46.170;7.222;2023-05-25T06:23:17;96009.91;;;17.45;59.32
13581;BME280;6861;46.170;7.222;2023-05-25T06:25:46;96008.50;;;17.47;59.51
13581;BME280;6861;46.170;7.222;2023-05-25T06:28:15;96014.13;;;17.54;59.22
13581;BME280;6861;46.170;7.222;2023-05-25T06:30:43;96018.34;;;17.55;58.89
13581;BME280;6861;46.170;7.222;2023-05-25T06:33:11;96024.72;;;17.54;59.07
13581;BME280;6861;46.170;7.222;2023-05-25T06:35:39;96028.41;;;17.45;58.96
13581;BME280;6861;46.170;7.222;2023-05-25T06:38:08;96031.22;;;17.48;59.07
13581;BME280;6861;46.170;7.222;2023-05-25T06:40:37;96035.44;;;17.49;59.05
13581;BME280;6861;46.170;7.222;2023-05-25T06:43:06;96041.34;;;17.46;58.57
13581;BME280;6861;46.170;7.222;2023-05-25T06:45:34;96038.69;;;17.46;59.03
13581;BME280;6861;46.170;7.222;2023-05-25T06:48:03;96043.84;;;17.51;59.35
13581;BME280;6861;46.170;7.222;2023-05-25T06:50:31;96043.56;;;17.61;58.86
13581;BME280;6861;46.170;7.222;2023-05-25T06:52:59;96050.63;;;17.66;57.98
13581;BME280;6861;46.170;7.222;2023-05-25T06:55:27;96054.06;;;17.66;57.88
13581;BME280;6861;46.170;7.222;2023-05-25T06:57:55;96046.69;;;17.63;58.47
13581;BME280;6861;46.170;7.222;2023-05-25T07:00:25;96045.81;;;17.68;57.90
13581;BME280;6861;46.170;7.222;2023-05-25T07:02:53;96048.78;;;17.75;57.79
13581;BME280;6861;46.170;7.222;2023-05-25T07:05:22;96054.59;;;17.94;57.64
13581;BME280;6861;46.170;7.222;2023-05-25T07:07:50;96055.53;;;18.07;57.49
13581;BME280;6861;46.170;7.222;2023-05-25T07:10:18;96057.41;;;18.24;57.01
13581;BME280;6861;46.170;7.222;2023-05-25T07:12:46;96057.72;;;18.57;56.23
13581;BME280;6861;46.170;7.222;2023-05-25T07:15:14;96058.47;;;19.01;55.87
13581;BME280;6861;46.170;7.222;2023-05-25T07:17:44;96061.56;;;19.49;55.00
13581;BME280;6861;46.170;7.222;2023-05-25T07:20:13;96062.59;;;19.95;53.87
13581;BME280;6861;46.170;7.222;2023-05-25T07:22:41;96068.72;;;20.37;52.82
13581;BME280;6861;46.170;7.222;2023-05-25T07:25:09;96066.00;;;21.33;51.33
13581;BME280;6861;46.170;7.222;2023-05-25T07:27:37;96059.75;;;22.54;49.54
13581;BME280;6861;46.170;7.222;2023-05-25T07:30:06;96068.22;;;23.12;48.08
13581;BME280;6861;46.170;7.222;2023-05-25T07:32:35;96062.41;;;24.04;46.55
13581;BME280;6861;46.170;7.222;2023-05-25T07:35:06;96072.25;;;25.35;44.22
13581;BME280;6861;46.170;7.222;2023-05-25T07:37:34;96067.25;;;26.62;42.16
13581;BME280;6861;46.170;7.222;2023-05-25T07:40:03;96068.47;;;27.90;40.01
13581;BME280;6861;46.170;7.222;2023-05-25T07:42:32;96080.59;;;29.01;38.43
13581;BME280;6861;46.170;7.222;2023-05-25T07:45:01;96083.00;;;30.13;36.88
13581;BME280;6861;46.170;7.222;2023-05-25T07:47:29;96082.22;;;29.73;35.48
13581;BME280;6861;46.170;7.222;2023-05-25T07:49:57;96080.97;;;28.20;35.56
13581;BME280;6861;46.170;7.222;2023-05-25T07:52:27;96070.81;;;27.07;37.00
13581;BME280;6861;46.170;7.222;2023-05-25T07:54:55;96066.44;;;28.28;36.19
13581;BME280;6861;46.170;7.222;2023-05-25T07:57:23;96072.22;;;29.70;33.90
13581;BME280;6861;46.170;7.222;2023-05-25T07:59:51;96067.69;;;30.90;32.36
13581;BME280;6861;46.170;7.222;2023-05-25T08:02:19;96062.28;;;31.52;31.28
13581;BME280;6861;46.170;7.222;2023-05-25T08:04:48;96068.81;;;32.44;30.53
13581;BME280;6861;46.170;7.222;2023-05-25T08:07:17;96069.53;;;33.40;28.97
13581;BME280;6861;46.170;7.222;2023-05-25T08:09:47;96065.25;;;33.66;28.35
13581;BME280;6861;46.170;7.222;2023-05-25T08:12:16;96049.09;;;34.65;28.14
13581;BME280;6861;46.170;7.222;2023-05-25T08:14:47;96054.63;;;35.82;26.91
13581;BME280;6861;46.170;7.222;2023-05-25T08:17:15;96059.97;;;37.01;25.84
13581;BME280;6861;46.170;7.222;2023-05-25T08:19:43;96064.44;;;37.33;23.99
13581;BME280;6861;46.170;7.222;2023-05-25T08:22:11;96067.63;;;37.32;24.33
13581;BME280;6861;46.170;7.222;2023-05-25T08:24:39;96062.59;;;38.03;24.14
13581;BME280;6861;46.170;7.222;2023-05-25T08:27:09;96066.91;;;38.91;23.20
13581;BME280;6861;46.170;7.222;2023-05-25T08:29:37;96075.44;;;39.74;22.63
13581;BME280;6861;46.170;7.222;2023-05-25T08:32:06;96066.97;;;40.08;21.34
13581;BME280;6861;46.170;7.222;2023-05-25T08:34:34;96060.09;;;40.22;21.54
13581;BME280;6861;46.170;7.222;2023-05-25T08:37:02;96061.44;;;40.81;20.95
13581;BME280;6861;46.170;7.222;2023-05-25T08:39:30;96071.84;;;41.19;20.74
13581;BME280;6861;46.170;7.222;2023-05-25T08:42:00;96073.56;;;41.74;20.31
13581;BME280;6861;46.170;7.222;2023-05-25T08:44:30;96070.34;;;41.75;18.92
13581;BME280;6861;46.170;7.222;2023-05-25T08:47:04;96074.38;;;41.65;19.23
13581;BME280;6861;46.170;7.222;2023-05-25T08:49:34;96075.81;;;42.08;19.45
13581;BME280;6861;46.170;7.222;2023-05-25T08:52:04;96082.91;;;42.39;18.30
13581;BME280;6861;46.170;7.222;2023-05-25T08:54:36;96086.16;;;41.89;18.66
13581;BME280;6861;46.170;7.222;2023-05-25T08:57:09;96087.69;;;42.68;18.34
13581;BME280;6861;46.170;7.222;2023-05-25T08:59:43;96088.28;;;43.01;18.30
13581;BME280;6861;46.170;7.222;2023-05-25T09:02:21;96091.88;;;43.22;17.44
13581;BME280;6861;46.170;7.222;2023-05-25T09:04:52;96093.56;;;43.34;17.98
13581;BME280;6861;46.170;7.222;2023-05-25T09:07:20;96101.75;;;44.19;17.63
13581;BME280;6861;46.170;7.222;2023-05-25T09:09:49;96090.94;;;44.88;17.17
13581;BME280;6861;46.170;7.222;2023-05-25T09:12:19;96097.94;;;43.96;17.76
13581;BME280;6861;46.170;7.222;2023-05-25T09:14:48;96095.22;;;44.17;17.66
13581;BME280;6861;46.170;7.222;2023-05-25T09:17:17;96093.97;;;44.90;17.25
13581;BME280;6861;46.170;7.222;2023-05-25T09:19:45;96083.56;;;45.05;17.04
13581;BME280;6861;46.170;7.222;2023-05-25T09:22:14;96096.94;;;44.60;17.05
13581;BME280;6861;46.170;7.222;2023-05-25T09:24:43;96086.81;;;45.03;16.81
13581;BME280;6861;46.170;7.222;2023-05-25T09:27:16;96088.84;;;45.83;16.26
13581;BME280;6861;46.170;7.222;2023-05-25T09:29:47;96090.44;;;46.71;15.83
13581;BME280;6861;46.170;7.222;2023-05-25T09:32:17;96093.22;;;47.16;15.40
13581;BME280;6861;46.170;7.222;2023-05-25T09:34:46;96094.72;;;46.01;15.63
13581;BME280;6861;46.170;7.222;2023-05-25T09:37:15;96094.06;;;44.49;16.30
13581;BME280;6861;46.170;7.222;2023-05-25T09:39:45;96104.81;;;43.01;17.07
13581;BME280;6861;46.170;7.222;2023-05-25T09:42:15;96103.59;;;41.20;18.53
13581;BME280;6861;46.170;7.222;2023-05-25T09:44:43;96110.84;;;40.63;19.45
13581;BME280;6861;46.170;7.222;2023-05-25T09:47:13;96105.75;;;41.07;19.20
13581;BME280;6861;46.170;7.222;2023-05-25T09:49:42;96109.97;;;41.17;19.02
13581;BME280;6861;46.170;7.222;2023-05-25T09:52:13;96115.94;;;41.25;19.08
13581;BME280;6861;46.170;7.222;2023-05-25T09:54:43;96111.63;;;41.66;18.80
13581;BME280;6861;46.170;7.222;2023-05-25T09:57:11;96119.88;;;41.33;18.94
13581;BME280;6861;46.170;7.222;2023-05-25T09:59:40;96123.38;;;40.37;19.30
13581;BME280;6861;46.170;7.222;2023-05-25T10:02:08;96127.25;;;38.66;20.82
13581;BME280;6861;46.170;7.222;2023-05-25T10:04:38;96126.47;;;37.33;22.33
13581;BME280;6861;46.170;7.222;2023-05-25T10:07:07;96126.72;;;35.94;23.29
13581;BME280;6861;46.170;7.222;2023-05-25T10:09:39;96122.44;;;34.25;24.81
13581;BME280;6861;46.170;7.222;2023-05-25T10:12:08;96132.28;;;32.81;26.66
13581;BME280;6861;46.170;7.222;2023-05-25T10:14:37;96134.91;;;31.57;28.28
13581;BME280;6861;46.170;7.222;2023-05-25T10:17:07;96139.28;;;30.28;29.56
13581;BME280;6861;46.170;7.222;2023-05-25T10:19:41;96132.25;;;29.31;30.85
13581;BME280;6861;46.170;7.222;2023-05-25T10:22:19;96127.41;;;28.71;32.22
13581;BME280;6861;46.170;7.222;2023-05-25T10:24:53;96127.09;;;28.18;33.04
13581;BME280;6861;46.170;7.222;2023-05-25T10:27:23;96121.19;;;27.98;33.86
13581;BME280;6861;46.170;7.222;2023-05-25T10:29:55;96128.75;;;27.86;33.64
13581;BME280;6861;46.170;7.222;2023-05-25T10:32:23;96125.31;;;27.85;33.45
13581;BME280;6861;46.170;7.222;2023-05-25T10:34:56;96116.06;;;27.83;33.93
13581;BME280;6861;46.170;7.222;2023-05-25T10:37:25;96117.16;;;27.71;33.75
13581;BME280;6861;46.170;7.222;2023-05-25T10:39:56;96122.13;;;27.69;33.55
13581;BME280;6861;46.170;7.222;2023-05-25T10:42:25;96123.66;;;27.70;34.38
13581;BME280;6861;46.170;7.222;2023-05-25T10:44:55;96123.69;;;27.77;34.46
13581;BME280;6861;46.170;7.222;2023-05-25T10:47:24;96117.56;;;27.80;33.85
13581;BME280;6861;46.170;7.222;2023-05-25T10:49:55;96117.63;;;27.87;34.38
13581;BME280;6861;46.170;7.222;2023-05-25T10:52:26;96113.00;;;27.84;34.93
13581;BME280;6861;46.170;7.222;2023-05-25T10:54:55;96111.06;;;27.81;34.11
13581;BME280;6861;46.170;7.222;2023-05-25T10:57:24;96113.69;;;27.70;33.36
13581;BME280;6861;46.170;7.222;2023-05-25T10:59:54;96109.03;;;27.64;34.26
13581;BME280;6861;46.170;7.222;2023-05-25T11:02:27;96095.88;;;27.59;34.61
13581;BME280;6861;46.170;7.222;2023-05-25T11:05:35;96098.16;;;27.57;34.75
13581;BME280;6861;46.170;7.222;2023-05-25T11:08:05;96087.81;;;27.59;35.11
13581;BME280;6861;46.170;7.222;2023-05-25T11:10:50;96084.53;;;27.80;35.32
13581;BME280;6861;46.170;7.222;2023-05-25T11:13:21;96077.38;;;28.01;34.51
13581;BME280;6861;46.170;7.222;2023-05-25T11:18:52;96069.16;;;28.31;34.68
13581;BME280;6861;46.170;7.222;2023-05-25T11:21:41;96066.47;;;28.35;34.53
13581;BME280;6861;46.170;7.222;2023-05-25T11:24:12;96068.38;;;28.31;33.26
13581;BME280;6861;46.170;7.222;2023-05-25T11:26:55;96067.41;;;28.05;34.72
13581;BME280;6861;46.170;7.222;2023-05-25T11:29:23;96070.50;;;28.04;33.95
13581;BME280;6861;46.170;7.222;2023-05-25T11:31:53;96076.19;;;27.95;34.05
13581;BME280;6861;46.170;7.222;2023-05-25T11:34:22;96070.03;;;27.91;34.16
13581;BME280;6861;46.170;7.222;2023-05-25T11:36:56;96080.03;;;27.94;33.85
13581;BME280;6861;46.170;7.222;2023-05-25T11:39:27;96076.94;;;27.92;33.94
13581;BME280;6861;46.170;7.222;2023-05-25T11:41:58;96079.34;;;28.04;33.27
13581;BME280;6861;46.170;7.222;2023-05-25T11:44:30;96067.22;;;28.32;33.09
13581;BME280;6861;46.170;7.222;2023-05-25T11:47:01;96066.56;;;28.53;32.64
13581;BME280;6861;46.170;7.222;2023-05-25T11:49:31;96068.13;;;28.57;32.11
13581;BME280;6861;46.170;7.222;2023-05-25T11:52:04;96071.59;;;28.58;31.75
13581;BME280;6861;46.170;7.222;2023-05-25T11:54:33;96067.34;;;28.64;31.68
13581;BME280;6861;46.170;7.222;2023-05-25T11:57:02;96068.25;;;28.93;31.48
13581;BME280;6861;46.170;7.222;2023-05-25T11:59:31;96064.47;;;29.22;31.41
13581;BME280;6861;46.170;7.222;2023-05-25T12:02:00;96062.19;;;29.49;30.81
13581;BME280;6861;46.170;7.222;2023-05-25T12:04:29;96056.78;;;29.67;30.99
13581;BME280;6861;46.170;7.222;2023-05-25T12:07:03;96059.88;;;29.83;31.23
13581;BME280;6861;46.170;7.222;2023-05-25T12:09:32;96069.91;;;30.00;31.35
13581;BME280;6861;46.170;7.222;2023-05-25T12:12:02;96062.16;;;30.13;31.40
13581;BME280;6861;46.170;7.222;2023-05-25T12:14:31;96061.00;;;30.21;31.12
13581;BME280;6861;46.170;7.222;2023-05-25T12:17:02;96061.38;;;30.20;31.03
13581;BME280;6861;46.170;7.222;2023-05-25T12:19:30;96057.56;;;30.07;30.91
13581;BME280;6861;46.170;7.222;2023-05-25T12:21:59;96069.09;;;29.96;30.99
13581;BME280;6861;46.170;7.222;2023-05-25T12:24:28;96072.97;;;29.81;30.71
13581;BME280;6861;46.170;7.222;2023-05-25T12:26:56;96077.59;;;29.59;31.06
13581;BME280;6861;46.170;7.222;2023-05-25T12:29:25;96064.47;;;29.26;32.04
13581;BME280;6861;46.170;7.222;2023-05-25T12:32:00;96078.25;;;28.96;33.16
13581;BME280;6861;46.170;7.222;2023-05-25T12:34:29;96082.00;;;28.70;34.06
13581;BME280;6861;46.170;7.222;2023-05-25T12:36:57;96084.19;;;28.39;34.34
13581;BME280;6861;46.170;7.222;2023-05-25T12:39:34;96086.31;;;28.13;34.76
13581;BME280;6861;46.170;7.222;2023-05-25T12:42:11;96082.22;;;27.78;34.88
13581;BME280;6861;46.170;7.222;2023-05-25T12:44:41;96089.66;;;27.51;35.72
13581;BME280;6861;46.170;7.222;2023-05-25T12:47:10;96083.25;;;26.89;35.83
13581;BME280;6861;46.170;7.222;2023-05-25T12:49:40;96074.03;;;26.53;37.05
13581;BME280;6861;46.170;7.222;2023-05-25T12:52:09;96080.00;;;26.39;37.36
13581;BME280;6861;46.170;7.222;2023-05-25T12:54:41;96079.63;;;26.40;37.76
13581;BME280;6861;46.170;7.222;2023-05-25T12:57:11;96076.31;;;26.51;37.48
13581;BME280;6861;46.170;7.222;2023-05-25T12:59:41;96081.09;;;26.64;37.75
13581;BME280;6861;46.170;7.222;2023-05-25T13:02:09;96070.44;;;26.71;37.83
13581;BME280;6861;46.170;7.222;2023-05-25T13:04:39;96072.50;;;26.85;37.56
13581;BME280;6861;46.170;7.222;2023-05-25T13:07:08;96082.72;;;27.06;38.17
13581;BME280;6861;46.170;7.222;2023-05-25T13:09:36;96076.75;;;27.23;38.07
13581;BME280;6861;46.170;7.222;2023-05-25T13:12:07;96074.25;;;27.45;37.57
13581;BME280;6861;46.170;7.222;2023-05-25T13:14:35;96071.09;;;27.35;37.08
13581;BME280;6861;46.170;7.222;2023-05-25T13:17:03;96067.66;;;27.38;37.37
13581;BME280;6861;46.170;7.222;2023-05-25T13:19:31;96067.75;;;27.46;37.65
13581;BME280;6861;46.170;7.222;2023-05-25T13:21:59;96067.13;;;27.59;38.23
13581;BME280;6861;46.170;7.222;2023-05-25T13:24:28;96066.00;;;27.64;37.28
13581;BME280;6861;46.170;7.222;2023-05-25T13:26:56;96065.25;;;27.67;37.55